»·PEaware :: SKW4214 KSAN-KSFO

SKW4214 :: KSAN-KSFO

FLIGHT INFORMATION

Flight Status: Arrived
Operator:
SkyWest Airlines
More flights by this operator :: More flights under this callsign
Pilot: Anonymous 12254 (12254)
Aircraft: EMBRAER EMB-190/195
(E190)
More flights by this aircraft type
Origin: KSAN San Diego Intl-Lindbergh
United States
Destination: KSFO San Francisco Intl
United States
More flights between these airports :: More routes between these airports
Route: PADRZ2 IKAYE RIZIN SPLNT STOKD SERFR SERFR4
File this flight plan on PilotEdge
Remarks:
Altitude:
(Current/Filed)
28,000ft
Speed:
(Current/Filed)
400kts
Departed: 10-Feb-20 12:25 PM
Arrived: 10-Feb-20 01:31 PM
Distance/Time
Traveled:
388nm/1:05
Distance/Time
To Go:
Arrived

Flight Plot

Page will automatically refresh every two minutes.

Flight plan parsing failed; only flown route is shown


Map Options




Map Legend


Flown Route
Filed Route
Departure Airport
Arrival Airport
Navaid (VOR, NDB)
Fix

Horizontal Profiles

Position Reports

Time Latitude Longitude Heading Altitude Ground
Speed
10-Feb-20 12:07 32.732709 -117.201993 271 17ft 0kts
10-Feb-20 12:08 32.732709 -117.201993 271 17ft 0kts
10-Feb-20 12:09 32.732709 -117.201993 271 17ft 0kts
10-Feb-20 12:10 32.732709 -117.201993 271 17ft 0kts
10-Feb-20 12:11 32.732709 -117.201993 271 17ft 0kts
10-Feb-20 12:12 32.732709 -117.201993 271 17ft 0kts
10-Feb-20 12:13 32.732709 -117.201993 271 17ft 0kts
10-Feb-20 12:14 32.732709 -117.201993 271 17ft 0kts
10-Feb-20 12:16 32.732709 -117.201993 271 17ft 0kts
10-Feb-20 12:17 32.732709 -117.201993 271 17ft 0kts
10-Feb-20 12:18 32.732710 -117.202034 271 17ft 0kts
10-Feb-20 12:19 32.733639 -117.202760 350 17ft 7kts
10-Feb-20 12:20 32.735431 -117.201858 87 17ft 16kts
10-Feb-20 12:21 32.733640 -117.194232 106 21ft 25kts
10-Feb-20 12:22 32.731607 -117.185879 105 17ft 26kts
10-Feb-20 12:23 32.729613 -117.177655 106 21ft 16kts
10-Feb-20 12:24 32.729837 -117.175916 32 24ft 18kts
10-Feb-20 12:25 32.739281 -117.215610 283 684ft 217kts
10-Feb-20 12:26 32.775374 -117.277797 304 3004ft 235kts
10-Feb-20 12:27 32.812365 -117.338202 306 5371ft 244kts
10-Feb-20 12:28 32.849493 -117.395857 307 7631ft 243kts
10-Feb-20 12:29 32.891382 -117.460907 310 8844ft 250kts
10-Feb-20 12:30 32.938401 -117.533851 310 10382ft 341kts
10-Feb-20 12:31 32.997534 -117.626196 311 11792ft 355kts
10-Feb-20 12:32 33.058879 -117.721982 314 13740ft 368kts
10-Feb-20 12:33 33.136978 -117.803981 325 15958ft 380kts
10-Feb-20 12:34 33.216616 -117.890161 322 18180ft 390kts
10-Feb-20 12:35 33.295613 -117.983224 320 20414ft 404kts
10-Feb-20 12:36 33.376677 -118.080141 320 22646ft 417kts
10-Feb-20 12:37 33.459487 -118.179461 319 23235ft 418kts
10-Feb-20 12:37 33.529346 -118.263382 319 24951ft 430kts
10-Feb-20 12:39 33.629897 -118.384677 319 27325ft 444kts
10-Feb-20 12:40 33.718167 -118.491535 319 27987ft 449kts
10-Feb-20 12:40 33.791850 -118.580940 319 27979ft 450kts
10-Feb-20 12:41 33.877769 -118.685465 319 27964ft 449kts
10-Feb-20 12:43 33.980534 -118.810893 318 27981ft 451kts
10-Feb-20 12:43 34.053566 -118.900401 319 27992ft 448kts
10-Feb-20 12:44 34.140146 -119.007775 311 27973ft 451kts
10-Feb-20 12:45 34.204670 -119.129724 307 28003ft 452kts
10-Feb-20 12:46 34.271493 -119.259564 306 28017ft 451kts
10-Feb-20 12:47 34.330374 -119.374403 307 28012ft 451kts
10-Feb-20 12:48 34.396687 -119.504307 307 28003ft 451kts
10-Feb-20 12:49 34.471901 -119.607112 319 28022ft 448kts
10-Feb-20 12:50 34.558673 -119.714044 319 28011ft 442kts
10-Feb-20 12:51 34.645373 -119.821144 319 28008ft 447kts
10-Feb-20 12:52 34.732289 -119.928827 319 28027ft 449kts
10-Feb-20 12:53 34.814572 -120.031082 319 28045ft 447kts
10-Feb-20 12:54 34.901354 -120.139401 319 28045ft 444kts
10-Feb-20 12:55 34.987648 -120.247362 321 28074ft 440kts
10-Feb-20 12:56 35.072386 -120.353702 322 28055ft 438kts
10-Feb-20 12:57 35.163460 -120.448429 329 28076ft 429kts
10-Feb-20 12:58 35.256517 -120.541294 329 28085ft 426kts
10-Feb-20 12:59 35.348940 -120.633942 329 28102ft 434kts
10-Feb-20 13:00 35.441414 -120.726858 328 28096ft 430kts
10-Feb-20 13:01 35.503775 -120.789746 328 28113ft 427kts
10-Feb-20 13:02 35.584709 -120.871444 327 28095ft 426kts
10-Feb-20 13:03 35.676229 -120.964131 327 28087ft 429kts
10-Feb-20 13:04 35.768232 -121.057663 327 28099ft 430kts
10-Feb-20 13:05 35.860316 -121.151535 328 28088ft 423kts
10-Feb-20 13:06 35.951433 -121.244724 327 28089ft 420kts
10-Feb-20 13:07 36.042551 -121.338195 328 28092ft 425kts
10-Feb-20 13:08 36.131864 -121.414317 335 27269ft 382kts
10-Feb-20 13:09 36.222240 -121.484742 335 26316ft 381kts
10-Feb-20 13:10 36.311281 -121.554480 334 25340ft 377kts
10-Feb-20 13:11 36.392017 -121.617822 334 23487ft 374kts
10-Feb-20 13:12 36.478754 -121.686134 333 21057ft 363kts
10-Feb-20 13:13 36.562457 -121.752208 333 19762ft 354kts
10-Feb-20 13:14 36.645499 -121.817958 332 18734ft 350kts
10-Feb-20 13:15 36.727841 -121.883338 332 17704ft 346kts
10-Feb-20 13:16 36.807164 -121.946805 348 16840ft 335kts
10-Feb-20 13:17 36.898714 -121.951368 1 15695ft 326kts
10-Feb-20 13:18 36.988491 -121.967583 346 14679ft 328kts
10-Feb-20 13:19 37.073613 -122.000565 346 13158ft 305kts
10-Feb-20 13:20 37.151712 -122.031025 346 11117ft 283kts
10-Feb-20 13:21 37.223753 -122.059272 345 9492ft 258kts
10-Feb-20 13:22 37.291156 -122.088224 346 7786ft 254kts
10-Feb-20 13:23 37.358647 -122.112802 345 6129ft 248kts
10-Feb-20 13:24 37.425144 -122.135974 346 5643ft 238kts
10-Feb-20 13:25 37.484338 -122.156275 345 4708ft 207kts
10-Feb-20 13:26 37.535743 -122.180912 307 3385ft 199kts
10-Feb-20 13:27 37.562192 -122.242322 296 1733ft 195kts
10-Feb-20 13:28 37.589047 -122.304410 298 1003ft 203kts
10-Feb-20 13:29 37.611188 -122.357403 297 77ft 144kts
10-Feb-20 13:30 37.619527 -122.379457 226 29ft 5kts
10-Feb-20 13:31 37.619517 -122.381602 295 30ft 11kts
10-Feb-20 13:32 37.605590 -122.343859 298 305ft 155kts
10-Feb-20 13:33 37.619564 -122.377182 299 25ft 54kts
10-Feb-20 13:34 37.619189 -122.380862 298 30ft 6kts
10-Feb-20 13:35 37.619414 -122.381341 297 31ft 6kts
10-Feb-20 13:36 37.619414 -122.381341 297 31ft 6kts
10-Feb-20 13:37 37.619414 -122.381341 297 31ft 6kts
10-Feb-20 13:38 37.619414 -122.381341 297 31ft 6kts
10-Feb-20 13:39 37.619414 -122.381341 297 31ft 6kts
10-Feb-20 13:40 37.619414 -122.381341 297 31ft 6kts
10-Feb-20 13:41 37.619414 -122.381341 297 31ft 6kts

Navigation Log

Ident Type
Flight plan parsing failed, navigation log unavailable